Time;durP1;ratioP1;P1;durP2;ratioP2;P2;SDS_P1;SDS_P2;PMS_P1;PMS_P2;Temp;Humidity;BMP_temperature;BMP_pressure;BME280_temperature;BME280_humidity;BME280_pressure;Samples;Min_cycle;Max_cycle;Signal;HPM_P1;HPM_P2
2022/07/04 00:00:28;;;;;;;2.13;1.13;;;21.60;91.10;;;;;;5086228;28;20070;-83
2022/07/04 00:02:55;;;;;;;5.57;1.70;;;21.50;91.20;;;;;;5074798;28;20055;-83
2022/07/04 00:05:21;;;;;;;3.03;1.40;;;21.50;91.40;;;;;;5096235;28;20059;-82
2022/07/04 00:07:49;;;;;;;2.05;1.20;;;21.40;91.50;;;;;;5071084;28;20027;-83
2022/07/04 00:10:20;;;;;;;2.95;1.25;;;21.40;91.70;;;;;;5076441;28;20143;-83
2022/07/04 00:12:46;;;;;;;1.98;1.35;;;21.40;92.00;;;;;;5070466;28;20020;-83
2022/07/04 00:15:13;;;;;;;2.17;1.45;;;21.40;92.10;;;;;;5071709;28;20361;-83
2022/07/04 00:17:39;;;;;;;2.15;1.27;;;21.40;92.20;;;;;;5088918;28;20070;-83
2022/07/04 00:20:06;;;;;;;1.73;1.30;;;21.40;92.30;;;;;;5074201;28;20054;-83
2022/07/04 00:22:32;;;;;;;3.53;1.52;;;21.40;92.30;;;;;;5092246;28;20024;-82
2022/07/04 00:24:57;;;;;;;2.33;1.67;;;21.30;92.30;;;;;;5073046;28;20054;-84
2022/07/04 00:27:23;;;;;;;3.13;1.55;;;21.30;92.30;;;;;;5091174;28;20030;-83
2022/07/04 00:29:49;;;;;;;3.65;1.50;;;21.30;92.40;;;;;;5086112;28;20030;-84
2022/07/04 00:32:15;;;;;;;3.13;1.08;;;21.30;92.50;;;;;;5092041;28;20024;-84
2022/07/04 00:34:41;;;;;;;3.30;1.48;;;21.20;92.50;;;;;;5088218;28;20051;-83
2022/07/04 00:37:06;;;;;;;7.53;1.50;;;21.20;92.70;;;;;;5089649;28;20032;-84
2022/07/04 00:39:32;;;;;;;2.80;1.70;;;21.10;92.90;;;;;;5090293;28;20062;-83
2022/07/04 00:41:58;;;;;;;4.80;1.55;;;21.10;93.00;;;;;;5086016;28;20511;-83
2022/07/04 00:44:23;;;;;;;4.45;1.58;;;21.10;93.10;;;;;;5093331;28;20047;-83
2022/07/04 00:46:49;;;;;;;7.93;1.65;;;21.10;93.10;;;;;;5088418;28;20020;-83
2022/07/04 00:49:16;;;;;;;2.75;1.30;;;21.10;93.20;;;;;;5084821;28;20750;-83
2022/07/04 00:51:44;;;;;;;3.58;1.10;;;21.10;93.20;;;;;;5085963;28;20103;-83
2022/07/04 00:54:15;;;;;;;1.75;1.20;;;21.10;93.30;;;;;;5091612;28;20028;-82
2022/07/04 00:56:42;;;;;;;1.90;1.42;;;21.10;93.40;;;;;;5088320;28;20073;-81
2022/07/04 00:59:09;;;;;;;2.70;1.58;;;21.10;93.50;;;;;;5098337;28;20144;-81
2022/07/04 01:01:35;;;;;;;3.75;1.63;;;21.10;93.50;;;;;;5088282;28;20032;-81
2022/07/04 01:04:05;;;;;;;2.55;1.42;;;21.10;93.60;;;;;;5094272;28;20027;-81
2022/07/04 01:06:31;;;;;;;2.90;1.70;;;21.10;93.70;;;;;;5085150;28;20091;-81
2022/07/04 01:08:57;;;;;;;1.73;1.40;;;21.10;93.80;;;;;;5089379;28;20031;-81
2022/07/04 01:11:23;;;;;;;3.40;1.25;;;21.00;93.70;;;;;;5088856;28;20023;-81
2022/07/04 01:13:49;;;;;;;3.40;1.33;;;21.00;93.80;;;;;;5095126;28;20115;-82
2022/07/04 01:16:14;;;;;;;1.80;1.20;;;21.00;93.80;;;;;;5086122;28;20032;-81
2022/07/04 01:18:40;;;;;;;4.95;1.60;;;21.00;93.80;;;;;;5071618;28;20067;-80
2022/07/04 01:21:07;;;;;;;2.45;1.45;;;21.00;93.80;;;;;;5092823;28;20031;-82
2022/07/04 01:23:37;;;;;;;1.65;1.38;;;21.00;93.80;;;;;;5070470;28;20028;-81
2022/07/04 01:26:03;;;;;;;1.75;1.33;;;21.00;93.70;;;;;;5094365;28;20058;-82
2022/07/04 01:28:29;;;;;;;1.83;1.27;;;21.00;93.70;;;;;;5085876;28;20055;-82
2022/07/04 01:30:54;;;;;;;2.17;1.30;;;21.00;93.70;;;;;;5087835;28;20470;-82
2022/07/04 01:33:20;;;;;;;3.25;1.10;;;21.00;93.70;;;;;;5090755;28;20042;-82
2022/07/04 01:35:47;;;;;;;4.03;1.58;;;21.00;93.80;;;;;;5067358;28;20441;-82
2022/07/04 01:38:13;;;;;;;1.90;1.30;;;21.00;93.80;;;;;;5085568;28;20048;-82
2022/07/04 01:40:38;;;;;;;3.75;1.20;;;21.00;93.90;;;;;;5090371;28;20024;-82
2022/07/04 01:43:04;;;;;;;1.98;1.10;;;21.00;94.20;;;;;;5086998;28;20055;-82
2022/07/04 01:45:33;;;;;;;2.45;0.98;;;21.00;94.00;;;;;;5091789;28;20073;-82
2022/07/04 01:47:58;;;;;;;6.03;1.30;;;21.00;94.00;;;;;;5084114;28;20515;-82
2022/07/04 01:50:24;;;;;;;3.05;1.15;;;21.00;94.00;;;;;;5086177;28;20099;-82
2022/07/04 01:52:49;;;;;;;3.65;1.30;;;20.90;94.10;;;;;;5089714;28;20386;-82
2022/07/04 01:55:15;;;;;;;2.42;1.60;;;21.00;94.20;;;;;;5088804;28;20495;-82
2022/07/04 01:57:41;;;;;;;2.33;1.02;;;20.90;94.30;;;;;;5089155;28;20063;-82
2022/07/04 02:02:55;;;;;;;2.08;1.10;;;20.90;94.50;;;;;;5089713;28;20039;-83
2022/07/04 02:05:21;;;;;;;1.63;1.05;;;20.90;94.50;;;;;;5083781;28;20031;-82
2022/07/04 02:07:48;;;;;;;4.50;1.25;;;20.90;94.90;;;;;;5088154;28;20370;-82
2022/07/04 02:10:14;;;;;;;1.40;1.20;;;20.90;94.70;;;;;;5083845;28;20104;-82
2022/07/04 02:15:23;;;;;;;4.30;1.50;;;20.80;94.90;;;;;;5086754;28;20097;-82
2022/07/04 02:17:49;;;;;;;1.55;1.33;;;20.90;95.10;;;;;;5081428;28;20472;-81
2022/07/04 02:20:15;;;;;;;3.20;1.70;;;20.90;95.00;;;;;;5082454;28;20031;-83
2022/07/04 02:22:41;;;;;;;2.17;1.20;;;20.90;95.00;;;;;;5089755;28;20023;-82
2022/07/04 02:25:07;;;;;;;2.97;1.40;;;20.90;94.90;;;;;;5084420;28;20052;-81
2022/07/04 02:27:33;;;;;;;3.83;1.50;;;20.90;94.90;;;;;;5089088;28;20496;-82
2022/07/04 02:29:58;;;;;;;3.13;1.40;;;20.90;94.80;;;;;;5087312;28;20095;-83
2022/07/04 02:32:24;;;;;;;3.45;1.55;;;20.90;94.80;;;;;;5087074;28;20111;-83
2022/07/04 02:34:50;;;;;;;2.65;1.30;;;20.90;94.90;;;;;;5090014;28;20031;-82
2022/07/04 02:37:16;;;;;;;2.53;1.48;;;20.90;95.00;;;;;;5089861;28;20032;-82
2022/07/04 02:39:42;;;;;;;4.72;1.50;;;20.90;95.20;;;;;;5089697;28;20509;-82
2022/07/04 02:42:07;;;;;;;2.42;1.20;;;20.80;95.30;;;;;;5089471;28;20028;-83
2022/07/04 02:44:33;;;;;;;3.63;1.52;;;20.80;95.20;;;;;;5075009;28;20035;-82
2022/07/04 02:47:00;;;;;;;4.88;1.65;;;20.80;95.20;;;;;;5091004;28;20039;-82
2022/07/04 02:49:25;;;;;;;5.43;1.50;;;20.80;95.20;;;;;;5087437;28;20016;-82
2022/07/04 02:51:51;;;;;;;1.70;1.40;;;20.80;95.20;;;;;;5093540;28;20036;-82
2022/07/04 02:54:17;;;;;;;2.85;1.40;;;20.80;95.30;;;;;;5088988;28;20035;-82
2022/07/04 02:56:43;;;;;;;2.95;1.50;;;20.80;95.40;;;;;;5100173;28;20040;-82
2022/07/04 02:59:08;;;;;;;4.20;1.30;;;20.80;95.60;;;;;;5094056;28;20028;-82
2022/07/04 03:01:34;;;;;;;2.90;1.83;;;20.70;95.50;;;;;;5097184;28;20447;-82
2022/07/04 03:04:00;;;;;;;5.13;1.80;;;20.70;95.60;;;;;;5090859;28;20471;-82
2022/07/04 03:06:25;;;;;;;3.00;1.35;;;20.70;95.70;;;;;;5076011;28;20033;-82
2022/07/04 03:08:52;;;;;;;4.15;1.60;;;20.70;95.70;;;;;;5089902;28;20028;-82
2022/07/04 03:11:18;;;;;;;3.55;1.75;;;20.70;95.60;;;;;;5086458;28;20028;-82
2022/07/04 03:13:44;;;;;;;5.82;1.60;;;20.70;95.50;;;;;;5096488;28;20552;-81
2022/07/04 03:16:10;;;;;;;2.90;1.40;;;20.70;95.60;;;;;;5090574;28;20115;-80
2022/07/04 03:18:36;;;;;;;2.55;1.70;;;20.70;95.50;;;;;;5085560;28;20036;-81
2022/07/04 03:21:04;;;;;;;3.25;1.65;;;20.70;95.60;;;;;;5070887;28;20403;-81
2022/07/04 03:23:33;;;;;;;4.80;1.70;;;20.70;95.60;;;;;;5092541;28;20115;-81
2022/07/04 03:25:59;;;;;;;4.57;1.40;;;20.70;95.60;;;;;;5090562;28;20032;-81
2022/07/04 03:28:25;;;;;;;5.63;1.50;;;20.70;95.60;;;;;;5085319;28;20025;-81
2022/07/04 03:30:51;;;;;;;3.47;1.40;;;20.60;95.60;;;;;;5093739;28;20481;-81
2022/07/04 03:33:16;;;;;;;5.07;1.42;;;20.60;95.60;;;;;;5091797;28;20032;-81
2022/07/04 03:35:42;;;;;;;6.85;1.80;;;20.50;95.50;;;;;;5090035;28;20608;-80
2022/07/04 03:38:08;;;;;;;2.40;1.27;;;20.60;95.60;;;;;;5087821;28;20034;-81
2022/07/04 03:40:35;;;;;;;3.53;1.55;;;20.50;95.60;;;;;;5091645;28;20030;-80
2022/07/04 03:43:02;;;;;;;2.60;1.60;;;20.50;95.40;;;;;;5072151;28;20487;-81
2022/07/04 03:45:28;;;;;;;3.45;1.58;;;20.50;95.30;;;;;;5088759;28;20048;-81
2022/07/04 03:47:53;;;;;;;6.38;1.85;;;20.50;95.40;;;;;;5092260;28;20020;-81
2022/07/04 03:50:19;;;;;;;6.82;2.15;;;20.50;95.70;;;;;;5072861;28;20034;-81
2022/07/04 03:52:45;;;;;;;2.67;1.65;;;20.50;95.80;;;;;;5087461;28;20016;-81
2022/07/04 03:55:10;;;;;;;3.55;1.50;;;20.50;96.00;;;;;;5116899;28;20032;-80
2022/07/04 03:57:36;;;;;;;2.25;1.60;;;20.50;96.10;;;;;;5111184;28;20032;-80
2022/07/04 04:00:03;;;;;;;2.80;1.67;;;20.50;96.30;;;;;;5109847;28;20089;-81
2022/07/04 04:02:29;;;;;;;3.85;1.70;;;20.50;96.30;;;;;;5097496;28;20020;-81
2022/07/04 04:07:38;;;;;;;;;;;20.50;96.20;;;;;;5090191;28;20027;-81
2022/07/04 04:10:05;;;;;;;3.67;1.90;;;20.50;96.30;;;;;;5094567;28;20725;-82
2022/07/04 04:12:31;;;;;;;6.05;2.03;;;20.50;96.30;;;;;;5077839;28;20028;-81
2022/07/04 04:14:56;;;;;;;9.40;1.70;;;20.50;96.20;;;;;;5089275;28;20028;-81
2022/07/04 04:17:22;;;;;;;7.20;2.13;;;20.40;96.30;;;;;;5093223;28;20099;-82
2022/07/04 04:19:48;;;;;;;4.50;1.85;;;20.40;96.10;;;;;;5094730;28;20365;-82
2022/07/04 04:22:13;;;;;;;4.15;1.50;;;20.40;96.00;;;;;;5090012;28;20089;-81
2022/07/04 04:24:39;;;;;;;3.35;1.73;;;20.30;96.00;;;;;;5086426;28;20038;-82
2022/07/04 04:27:05;;;;;;;3.88;1.58;;;20.30;96.10;;;;;;5093922;28;20093;-82
2022/07/04 04:29:30;;;;;;;4.78;1.70;;;20.30;96.20;;;;;;5089739;28;20090;-82
2022/07/04 04:31:56;;;;;;;5.15;1.80;;;20.30;96.10;;;;;;5090010;28;20067;-82
2022/07/04 04:34:22;;;;;;;10.85;2.30;;;20.30;96.20;;;;;;5095516;28;20028;-82
2022/07/04 04:36:47;;;;;;;7.57;1.85;;;20.30;96.10;;;;;;5090340;28;20102;-81
2022/07/04 04:39:13;;;;;;;3.75;1.63;;;20.30;96.10;;;;;;5089638;28;20103;-81
2022/07/04 04:41:39;;;;;;;5.13;1.63;;;20.30;96.10;;;;;;5083873;28;20083;-82
2022/07/04 04:44:05;;;;;;;2.38;1.50;;;20.20;95.70;;;;;;5085943;28;20085;-85
2022/07/04 04:46:31;;;;;;;5.10;1.90;;;20.30;95.70;;;;;;5091938;28;20028;-84
2022/07/04 04:48:56;;;;;;;5.57;1.98;;;20.30;95.50;;;;;;5092031;28;20043;-84
2022/07/04 04:51:22;;;;;;;4.03;1.52;;;20.20;95.30;;;;;;5090198;28;20055;-85
2022/07/04 04:53:48;;;;;;;3.47;1.70;;;20.20;95.30;;;;;;5095852;28;20111;-84
2022/07/04 04:56:14;;;;;;;3.55;1.88;;;20.20;95.20;;;;;;5093294;28;20037;-85
2022/07/04 04:58:39;;;;;;;4.45;1.70;;;20.20;95.10;;;;;;5095922;28;20024;-84
2022/07/04 05:01:05;;;;;;;3.80;1.55;;;20.20;95.00;;;;;;5087694;28;20077;-85
2022/07/04 05:03:31;;;;;;;3.55;1.50;;;20.20;95.10;;;;;;5096730;28;20058;-84
2022/07/04 05:05:56;;;;;;;4.88;1.88;;;20.20;95.00;;;;;;5089913;28;20016;-83
2022/07/04 05:08:24;;;;;;;4.80;1.35;;;20.20;95.00;;;;;;5088886;28;20036;-84
2022/07/04 05:10:50;;;;;;;5.03;1.90;;;20.20;94.90;;;;;;5084014;28;20028;-82
2022/07/04 05:13:16;;;;;;;8.73;1.90;;;20.10;94.90;;;;;;5094795;28;20034;-81
2022/07/04 05:15:41;;;;;;;6.18;1.92;;;20.20;95.00;;;;;;5091060;28;20013;-83
2022/07/04 05:18:07;;;;;;;4.03;1.52;;;20.20;95.00;;;;;;5093514;28;20020;-84
2022/07/04 05:20:33;;;;;;;3.70;1.60;;;20.20;95.20;;;;;;5091575;28;20111;-87
2022/07/04 05:22:59;;;;;;;4.60;1.45;;;20.20;94.90;;;;;;5092247;28;20039;-86
2022/07/04 05:25:25;;;;;;;2.88;1.60;;;20.20;95.00;;;;;;5090167;28;20032;-86
2022/07/04 05:27:51;;;;;;;5.65;2.17;;;20.30;95.20;;;;;;5095095;28;20031;-88
2022/07/04 05:30:16;;;;;;;2.92;1.73;;;20.40;95.10;;;;;;5073297;28;20024;-88
2022/07/04 05:32:42;;;;;;;4.55;1.83;;;20.40;95.10;;;;;;5070708;28;20110;-88
2022/07/04 05:35:08;;;;;;;3.75;1.80;;;20.50;95.00;;;;;;5095742;28;20081;-86
2022/07/04 05:37:35;;;;;;;2.72;1.67;;;20.50;94.80;;;;;;5091070;28;20020;-86
2022/07/04 05:40:01;;;;;;;5.57;1.70;;;20.60;94.40;;;;;;5088417;28;20031;-92
2022/07/04 05:42:27;;;;;;;4.90;1.70;;;20.60;94.30;;;;;;5069574;28;20499;-84
2022/07/04 05:44:53;;;;;;;4.88;1.45;;;20.70;94.30;;;;;;5094650;28;20046;-86
2022/07/04 05:47:19;;;;;;;2.35;1.63;;;20.90;94.50;;;;;;5086126;28;20028;-87
2022/07/04 05:49:44;;;;;;;3.05;1.60;;;21.00;93.90;;;;;;5085249;28;20514;-85
2022/07/04 05:52:10;;;;;;;3.35;1.65;;;21.10;93.60;;;;;;5088312;28;20139;-84
2022/07/04 05:54:36;;;;;;;3.33;1.70;;;21.20;93.00;;;;;;5090993;28;20028;-83
2022/07/04 05:57:02;;;;;;;2.33;1.50;;;21.10;92.50;;;;;;5084926;28;20078;-84
2022/07/04 05:59:29;;;;;;;4.43;1.88;;;21.20;92.50;;;;;;5083890;28;20028;-84
2022/07/04 06:01:56;;;;;;;4.90;2.03;;;21.20;92.30;;;;;;5088603;28;20023;-83
2022/07/04 06:04:22;;;;;;;4.85;2.03;;;21.20;92.10;;;;;;5092448;28;20036;-84
2022/07/04 06:06:47;;;;;;;6.38;1.88;;;21.30;92.00;;;;;;5095873;28;20112;-85
2022/07/04 06:09:13;;;;;;;6.53;2.03;;;21.30;92.00;;;;;;5069745;28;20031;-85
2022/07/04 06:11:39;;;;;;;6.00;1.70;;;21.30;91.80;;;;;;5091879;28;20388;-84
2022/07/04 06:14:04;;;;;;;17.15;2.88;;;21.30;91.90;;;;;;5084852;28;20035;-82
2022/07/04 06:16:30;;;;;;;6.97;2.40;;;21.40;91.90;;;;;;5088164;28;20051;-82
2022/07/04 06:18:56;;;;;;;5.95;1.75;;;21.40;91.90;;;;;;5090447;28;20392;-87
2022/07/04 06:21:22;;;;;;;4.97;1.88;;;21.50;91.90;;;;;;5083431;28;20040;-86
2022/07/04 06:23:47;;;;;;;3.17;1.50;;;21.50;91.90;;;;;;5085386;28;20028;-84
2022/07/04 06:26:13;;;;;;;2.75;1.55;;;21.60;91.90;;;;;;5075805;28;20946;-84
2022/07/04 06:28:39;;;;;;;3.78;1.40;;;21.60;91.80;;;;;;5063139;28;20024;-84
2022/07/04 06:31:04;;;;;;;4.50;1.60;;;21.60;91.70;;;;;;5063002;28;20156;-83
2022/07/04 06:33:30;;;;;;;4.80;1.80;;;21.60;91.80;;;;;;5091306;28;20170;-84
2022/07/04 06:35:55;;;;;;;5.22;1.88;;;21.60;91.80;;;;;;5087870;28;20467;-82
2022/07/04 06:38:27;;;;;;;4.53;1.65;;;21.70;91.80;;;;;;5079962;28;20114;-82
2022/07/04 06:40:58;;;;;;;3.55;1.55;;;21.80;91.80;;;;;;5073401;28;20082;-83
2022/07/04 06:43:24;;;;;;;4.47;1.90;;;21.70;91.60;;;;;;5087908;28;20024;-81
2022/07/04 06:45:50;;;;;;;3.50;1.60;;;21.60;91.70;;;;;;5085299;28;20062;-82
2022/07/04 06:48:16;;;;;;;7.25;1.98;;;21.60;91.80;;;;;;5088003;28;20020;-83
2022/07/04 06:50:42;;;;;;;3.78;1.70;;;21.60;91.80;;;;;;5068812;28;20756;-83
2022/07/04 06:53:09;;;;;;;3.83;1.83;;;21.60;91.90;;;;;;5072784;28;20024;-86
2022/07/04 06:55:39;;;;;;;4.55;1.85;;;21.60;91.90;;;;;;5074526;28;20055;-87
2022/07/04 06:58:06;;;;;;;4.88;1.70;;;21.50;91.80;;;;;;5084595;28;20298;-87
2022/07/04 07:00:32;;;;;;;8.50;2.15;;;21.50;91.90;;;;;;5072321;28;20605;-90
2022/07/04 07:03:00;;;;;;;6.88;1.85;;;21.40;91.90;;;;;;5070736;28;20052;-88
2022/07/04 07:05:26;;;;;;;3.28;1.80;;;21.30;92.00;;;;;;5086097;28;20480;-88
2022/07/04 07:07:52;;;;;;;4.43;2.40;;;21.30;92.10;;;;;;5086974;28;20020;-84
2022/07/04 07:10:18;;;;;;;5.75;1.60;;;21.20;92.70;;;;;;5085953;28;20023;-84
2022/07/04 07:12:45;;;;;;;6.65;1.70;;;21.20;92.50;;;;;;5094758;28;20476;-84
2022/07/04 07:15:10;;;;;;;4.32;1.75;;;21.20;92.50;;;;;;5090313;28;20029;-84
2022/07/04 07:17:36;;;;;;;6.05;2.20;;;21.10;92.60;;;;;;5085134;28;20031;-85
2022/07/04 07:20:02;;;;;;;5.40;1.83;;;21.10;92.70;;;;;;5085502;28;20020;-86
2022/07/04 07:22:28;;;;;;;5.03;1.55;;;21.10;92.70;;;;;;5088626;28;20152;-77
2022/07/04 07:24:54;;;;;;;6.07;1.85;;;21.10;92.70;;;;;;5083604;28;20107;-82
2022/07/04 07:27:19;;;;;;;3.80;1.80;;;21.00;93.00;;;;;;5088408;28;20054;-84
2022/07/04 07:29:45;;;;;;;4.63;1.70;;;21.00;93.20;;;;;;5089289;28;20107;-83
2022/07/04 07:32:11;;;;;;;4.80;1.95;;;21.00;93.10;;;;;;5077024;28;20024;-85
2022/07/04 07:34:37;;;;;;;7.47;1.95;;;21.00;93.10;;;;;;5089524;28;20036;-92
2022/07/04 07:37:05;;;;;;;5.50;1.95;;;21.00;93.30;;;;;;5087384;28;20115;-82
2022/07/04 07:39:31;;;;;;;4.05;1.77;;;21.00;93.40;;;;;;5085334;28;20040;-86
2022/07/04 07:41:56;;;;;;;3.33;1.70;;;21.00;93.40;;;;;;5088772;28;20076;-89
2022/07/04 07:44:24;;;;;;;6.18;2.45;;;21.00;93.60;;;;;;5071848;28;20396;-89
2022/07/04 07:46:50;;;;;;;5.43;1.55;;;21.10;93.60;;;;;;5087158;28;20032;-89
2022/07/04 07:49:16;;;;;;;3.92;1.80;;;21.20;93.50;;;;;;5088920;28;20027;-88
2022/07/04 07:51:42;;;;;;;4.35;1.70;;;21.20;93.40;;;;;;5079390;28;20029;-89
2022/07/04 07:54:07;;;;;;;6.38;1.70;;;21.30;93.20;;;;;;5089274;28;20089;-89
2022/07/04 07:56:33;;;;;;;5.15;1.67;;;21.40;93.30;;;;;;5090074;28;20028;-88
2022/07/04 07:58:59;;;;;;;4.45;2.00;;;21.50;93.40;;;;;;5075303;28;20023;-89
2022/07/04 08:01:25;;;;;;;2.67;1.77;;;21.60;93.40;;;;;;5091096;28;20119;-89
2022/07/04 08:06:38;;;;;;;4.80;2.20;;;21.80;93.20;;;;;;5096801;28;20498;-89
2022/07/04 08:09:04;;;;;;;4.15;1.65;;;21.90;93.20;;;;;;5093104;28;20078;-89
2022/07/04 08:11:29;;;;;;;3.53;1.38;;;22.00;93.10;;;;;;5091742;28;20464;-89
2022/07/04 08:13:55;;;;;;;4.07;1.88;;;22.00;93.00;;;;;;5087761;28;20092;-89
2022/07/04 08:16:21;;;;;;;5.05;2.15;;;22.10;92.90;;;;;;5074898;28;20032;-89
2022/07/04 08:18:46;;;;;;;8.43;1.80;;;22.10;92.90;;;;;;5089796;28;20112;-89
2022/07/04 08:21:13;;;;;;;5.47;2.15;;;22.20;92.70;;;;;;5093329;28;20077;-89
2022/07/04 08:23:40;;;;;;;7.47;2.20;;;22.20;92.80;;;;;;5095041;28;20082;-89
2022/07/04 08:26:09;;;;;;;4.28;2.22;;;22.10;92.80;;;;;;5089132;28;20533;-89
2022/07/04 08:28:34;;;;;;;4.57;2.35;;;22.10;92.80;;;;;;5095058;28;20054;-89
2022/07/04 08:31:00;;;;;;;5.50;2.55;;;22.20;93.00;;;;;;5105797;28;20016;-89
2022/07/04 08:33:26;;;;;;;4.82;2.25;;;22.30;93.00;;;;;;5115481;28;20033;-88
2022/07/04 08:35:53;;;;;;;7.07;2.53;;;22.30;92.90;;;;;;5094619;28;20039;-88
2022/07/04 08:38:20;;;;;;;6.65;2.53;;;22.40;92.80;;;;;;5120040;28;20087;-89
2022/07/04 08:40:48;;;;;;;5.80;1.95;;;22.40;92.60;;;;;;5115450;28;20042;-88
2022/07/04 08:43:15;;;;;;;6.10;2.08;;;22.50;92.70;;;;;;5103480;28;20035;-89
2022/07/04 08:45:41;;;;;;;6.45;2.33;;;22.50;92.50;;;;;;5104800;27;20023;-88
2022/07/04 08:48:08;;;;;;;6.22;2.00;;;22.60;92.70;;;;;;5094131;28;20051;-89
2022/07/04 08:50:57;;;;;;;5.55;2.25;;;22.70;92.40;;;;;;5097158;28;20146;-89
2022/07/04 08:53:27;;;;;;;7.03;2.63;;;22.80;92.10;;;;;;5103273;28;20039;-89
2022/07/04 08:58:48;;;;;;;5.88;2.85;;;23.10;91.60;;;;;;5074481;28;20032;-89
2022/07/04 09:01:14;;;;;;;3.67;2.22;;;23.30;91.30;;;;;;5077280;28;20019;-88
2022/07/04 09:03:42;;;;;;;6.00;1.88;;;23.40;90.70;;;;;;5096511;28;20031;-89
2022/07/04 09:06:09;;;;;;;3.78;1.95;;;23.40;90.70;;;;;;5095981;28;20066;-90
2022/07/04 09:08:35;;;;;;;4.32;1.92;;;23.40;90.60;;;;;;5074319;28;20047;-81
2022/07/04 09:11:01;;;;;;;3.95;1.95;;;23.40;90.70;;;;;;5094998;28;20028;-82
2022/07/04 09:13:27;;;;;;;4.70;2.20;;;23.50;90.70;;;;;;5089470;28;20028;-79
2022/07/04 09:15:53;;;;;;;5.88;1.70;;;23.60;90.70;;;;;;5087816;28;20032;-81
2022/07/04 09:18:27;;;;;;;4.85;1.88;;;23.70;90.60;;;;;;5089977;28;20046;-81
2022/07/04 09:20:55;;;;;;;4.80;2.15;;;23.80;90.30;;;;;;5072229;28;20050;-84
2022/07/04 09:23:24;;;;;;;3.85;2.10;;;23.80;89.90;;;;;;5096217;28;20043;-84
2022/07/04 09:26:10;;;;;;;4.60;2.20;;;23.80;90.00;;;;;;5092004;28;20023;-84
2022/07/04 09:28:37;;;;;;;7.93;2.15;;;23.80;89.90;;;;;;5094417;28;20471;-83
2022/07/04 09:31:23;;;;;;;4.45;2.25;;;23.90;89.40;;;;;;5096195;28;20053;-83
2022/07/04 09:33:53;;;;;;;4.70;1.73;;;23.90;89.00;;;;;;5097037;28;20403;-82
2022/07/04 09:36:21;;;;;;;4.45;2.60;;;24.00;88.70;;;;;;5093836;28;20031;-81
2022/07/04 09:39:09;;;;;;;4.43;2.10;;;23.90;87.90;;;;;;5087311;28;20039;-80
2022/07/04 09:41:56;;;;;;;5.45;2.15;;;23.90;88.00;;;;;;5084185;28;20350;-80
2022/07/04 09:44:24;;;;;;;4.28;2.83;;;23.90;87.90;;;;;;5092570;28;20486;-80
2022/07/04 09:46:51;;;;;;;4.45;2.00;;;23.90;87.30;;;;;;5094927;28;20024;-83
2022/07/04 09:49:17;;;;;;;3.42;2.15;;;24.00;87.00;;;;;;5089139;28;20091;-82
2022/07/04 09:51:50;;;;;;;9.63;2.25;;;23.90;87.00;;;;;;5091514;28;20848;-82
2022/07/04 09:54:15;;;;;;;9.70;2.35;;;24.00;86.40;;;;;;5085461;28;20435;-86
2022/07/04 09:56:43;;;;;;;4.25;2.20;;;24.10;86.50;;;;;;5065033;28;20521;-85
2022/07/04 09:59:09;;;;;;;5.32;2.08;;;24.10;85.90;;;;;;5087573;28;20093;-84
2022/07/04 10:01:35;;;;;;;2.60;1.63;;;24.10;86.00;;;;;;5072455;28;20053;-85
2022/07/04 10:04:03;;;;;;;5.13;2.00;;;24.10;86.10;;;;;;5088761;28;20111;-80
2022/07/04 10:06:32;;;;;;;6.70;2.03;;;24.20;86.20;;;;;;5086642;28;20084;-82
2022/07/04 10:09:11;;;;;;;4.70;1.80;;;24.20;85.70;;;;;;5078508;28;20396;-81
2022/07/04 10:11:38;;;;;;;5.00;2.38;;;24.20;85.40;;;;;;5095878;28;20020;-86
2022/07/04 10:14:08;;;;;;;5.13;2.00;;;24.20;85.10;;;;;;5103450;28;20030;-84
2022/07/04 10:16:34;;;;;;;3.28;1.90;;;24.20;85.10;;;;;;5097574;28;20019;-85
2022/07/04 10:19:00;;;;;;;4.97;1.65;;;24.20;85.40;;;;;;5096277;28;20058;-84
2022/07/04 10:21:28;;;;;;;3.03;2.03;;;24.30;85.20;;;;;;5072227;28;20101;-83
2022/07/04 10:23:53;;;;;;;7.43;2.08;;;24.30;85.60;;;;;;5098714;28;20020;-82
2022/07/04 10:26:20;;;;;;;3.40;1.70;;;24.20;85.50;;;;;;5093463;28;20031;-87
2022/07/04 10:28:49;;;;;;;3.05;1.77;;;24.30;85.70;;;;;;5099226;28;20032;-89
2022/07/04 10:31:16;;;;;;;2.88;2.05;;;24.30;85.90;;;;;;5097083;28;20024;-85
2022/07/04 10:33:45;;;;;;;4.75;1.90;;;24.40;86.20;;;;;;5097931;28;20020;-86
2022/07/04 10:36:22;;;;;;;5.60;1.77;;;24.40;85.40;;;;;;5080290;28;20031;-82
2022/07/04 10:38:50;;;;;;;7.30;1.90;;;24.40;85.50;;;;;;5081666;28;20207;-82
2022/07/04 10:41:20;;;;;;;3.95;2.08;;;24.50;85.60;;;;;;5092226;28;20030;-83
2022/07/04 10:44:07;;;;;;;6.60;2.00;;;24.50;85.30;;;;;;5094232;28;20016;-81
2022/07/04 10:46:37;;;;;;;7.45;2.22;;;24.40;85.60;;;;;;5095517;28;20031;-84
2022/07/04 10:49:06;;;;;;;6.18;1.88;;;24.40;85.80;;;;;;5095415;28;20020;-82
2022/07/04 10:51:33;;;;;;;6.15;1.88;;;24.50;85.90;;;;;;5088676;28;20023;-78
2022/07/04 10:53:59;;;;;;;6.45;2.10;;;24.50;85.00;;;;;;5092714;28;20024;-78
2022/07/04 10:56:28;;;;;;;4.47;2.20;;;24.50;85.30;;;;;;5092608;28;20068;-78
2022/07/04 10:59:01;;;;;;;4.05;2.05;;;24.60;84.90;;;;;;5088423;28;20108;-82
2022/07/04 11:01:27;;;;;;;4.77;1.83;;;24.70;84.00;;;;;;5096873;28;20031;-81
2022/07/04 11:03:54;;;;;;;4.18;2.00;;;24.70;83.70;;;;;;5087130;28;20288;-81
2022/07/04 11:06:36;;;;;;;2.33;1.80;;;24.80;82.90;;;;;;5088025;28;20617;-81
2022/07/04 11:09:17;;;;;;;2.10;1.70;;;24.80;82.30;;;;;;5091841;28;20117;-83
2022/07/04 11:11:51;;;;;;;4.18;1.50;;;24.90;82.60;;;;;;5085685;28;20060;-80
2022/07/04 11:14:45;;;;;;;5.55;2.05;;;24.90;81.70;;;;;;5088113;28;20039;-79
2022/07/04 11:17:26;;;;;;;2.53;1.73;;;24.90;81.80;;;;;;5092926;28;20035;-79
2022/07/04 11:19:59;;;;;;;5.53;2.00;;;24.80;81.90;;;;;;5086971;28;20040;-81
2022/07/04 11:22:25;;;;;;;;;;;24.70;81.70;;;;;;5088084;28;20020;-80
2022/07/04 11:24:50;;;;;;;2.08;1.50;;;24.70;81.40;;;;;;5071953;28;19916;-80
2022/07/04 11:27:16;;;;;;;6.32;1.92;;;24.70;81.50;;;;;;5089891;28;20027;-80
2022/07/04 11:29:54;;;;;;;3.42;1.67;;;24.60;80.80;;;;;;5087020;28;20048;-80
2022/07/04 11:32:29;;;;;;;3.75;1.73;;;24.60;80.90;;;;;;5093234;28;20028;-81
2022/07/04 11:34:55;;;;;;;4.40;1.80;;;24.50;80.90;;;;;;5090270;28;20024;-84
2022/07/04 11:37:21;;;;;;;3.92;1.63;;;24.50;80.90;;;;;;5094817;28;20053;-83
2022/07/04 11:39:51;;;;;;;4.15;1.60;;;24.40;80.90;;;;;;5075434;28;20076;-84
2022/07/04 11:45:02;;;;;;;5.50;1.50;;;24.50;81.20;;;;;;5083319;28;20070;-81
2022/07/04 11:47:39;;;;;;;4.78;1.73;;;24.50;81.10;;;;;;5088829;28;20428;-82
2022/07/04 11:50:08;;;;;;;4.18;1.95;;;24.60;81.20;;;;;;5093173;28;20093;-84
2022/07/04 11:52:37;;;;;;;4.90;1.50;;;24.60;81.60;;;;;;5091233;28;20081;-84
2022/07/04 11:55:08;;;;;;;3.70;1.70;;;24.70;81.60;;;;;;5076906;28;20019;-84
2022/07/04 11:57:39;;;;;;;3.88;1.70;;;24.70;81.10;;;;;;5069466;28;21133;-81
2022/07/04 12:00:09;;;;;;;3.13;1.80;;;24.70;81.00;;;;;;5089018;28;20020;-80
2022/07/04 12:02:36;;;;;;;3.92;1.73;;;24.80;80.90;;;;;;5086750;28;20045;-85
2022/07/04 12:05:04;;;;;;;4.22;1.73;;;24.80;80.80;;;;;;5076691;28;20031;-83
2022/07/04 12:07:34;;;;;;;4.45;2.45;;;24.80;80.70;;;;;;5071489;28;20080;-82
2022/07/04 12:10:17;;;;;;;3.30;1.67;;;24.80;81.00;;;;;;5092701;28;20024;-86
2022/07/04 12:12:56;;;;;;;4.80;2.10;;;24.80;82.00;;;;;;5094463;28;20047;-93
2022/07/04 12:15:23;;;;;;;2.75;1.80;;;24.80;82.40;;;;;;5083719;28;20069;-87
2022/07/04 12:17:51;;;;;;;4.78;1.88;;;24.90;81.90;;;;;;5102459;28;20027;-86
2022/07/04 12:20:18;;;;;;;4.35;1.92;;;24.80;82.10;;;;;;5098906;28;20024;-84
2022/07/04 12:22:50;;;;;;;4.75;1.98;;;24.90;81.70;;;;;;5095728;28;20020;-82
2022/07/04 12:25:34;;;;;;;4.78;1.85;;;25.00;81.70;;;;;;5075064;28;20496;-82
2022/07/04 12:28:03;;;;;;;6.32;1.70;;;25.10;80.70;;;;;;5093711;28;20024;-82
2022/07/04 12:30:31;;;;;;;6.53;1.63;;;25.00;80.20;;;;;;5080981;28;20111;-88
2022/07/04 12:33:02;;;;;;;3.05;1.52;;;25.00;80.20;;;;;;5079888;28;20032;-78
2022/07/04 12:35:39;;;;;;;4.15;1.92;;;25.10;80.60;;;;;;5089693;28;20028;-81
2022/07/04 12:38:09;;;;;;;2.58;1.60;;;25.20;79.80;;;;;;5092634;28;20023;-82
2022/07/04 12:40:36;;;;;;;3.30;1.58;;;25.20;79.60;;;;;;5086912;28;20147;-83
2022/07/04 12:43:02;;;;;;;3.00;1.77;;;25.20;79.60;;;;;;5090476;28;20028;-83
2022/07/04 12:45:46;;;;;;;4.03;1.90;;;25.30;78.80;;;;;;5087863;28;20595;-82
2022/07/04 12:48:28;;;;;;;4.82;1.70;;;25.20;78.30;;;;;;5095294;28;20026;-83
2022/07/04 12:50:56;;;;;;;3.70;1.55;;;25.20;78.30;;;;;;5089068;28;20048;-81
2022/07/04 12:53:21;;;;;;;3.60;1.92;;;25.20;78.00;;;;;;5111862;28;20020;-79
2022/07/04 12:55:49;;;;;;;4.65;1.92;;;25.30;78.00;;;;;;5106660;28;20438;-80
2022/07/04 12:58:14;;;;;;;4.55;1.55;;;25.30;78.40;;;;;;5102811;28;20034;-83
2022/07/04 13:00:43;;;;;;;3.90;1.80;;;25.30;78.70;;;;;;5072273;28;20894;-86
2022/07/04 13:03:09;;;;;;;3.88;1.60;;;25.30;78.60;;;;;;5096372;28;20024;-85
2022/07/04 13:05:36;;;;;;;4.35;1.80;;;25.40;78.10;;;;;;5099826;28;20081;-86